Time;durP1;ratioP1;P1;durP2;ratioP2;P2;SDS_P1;SDS_P2;PMS_P1;PMS_P2;Temp;Humidity;BMP_temperature;BMP_pressure;BME280_temperature;BME280_humidity;BME280_pressure;Samples;Min_cycle;Max_cycle;Signal;HPM_P1;HPM_P2
2023/12/06 00:02:10;;;;;;;8.80;8.60;;;;;;;-141.02;100.00;38948.78;5091459;28;20229;-72
2023/12/06 00:04:37;;;;;;;11.80;11.37;;;;;;;-141.02;100.00;38950.69;5091590;28;20565;-72
2023/12/06 00:07:05;;;;;;;7.07;6.87;;;;;;;-141.02;100.00;38929.59;5091611;28;20638;-71
2023/12/06 00:09:32;;;;;;;7.10;6.90;;;;;;;-141.02;100.00;38941.09;5091820;28;20197;-71
2023/12/06 00:11:59;;;;;;;7.27;7.07;;;;;;;-141.02;100.00;38950.69;5091882;28;20194;-71
2023/12/06 00:14:26;;;;;;;7.00;6.80;;;;;;;-141.02;100.00;38950.69;5091437;28;20229;-72
2023/12/06 00:16:56;;;;;;;7.10;6.90;;;;;;;-141.02;100.00;39008.22;5091475;28;20289;-72
2023/12/06 00:19:23;;;;;;;7.30;7.10;;;;;;;-141.02;100.00;38964.13;5091474;28;20209;-72
2023/12/06 00:21:50;;;;;;;6.90;6.70;;;;;;;-141.02;100.00;38998.63;5091458;28;20202;-72
2023/12/06 00:24:18;;;;;;;6.70;6.50;;;;;;;-141.02;100.00;39010.13;5091850;28;20198;-72
2023/12/06 00:26:46;;;;;;;6.70;6.50;;;;;;;-141.02;100.00;39040.81;5091470;28;20281;-72
2023/12/06 00:29:13;;;;;;;7.00;6.80;;;;;;;-141.02;100.00;39040.81;5095066;28;20190;-72
2023/12/06 00:31:40;;;;;;;6.57;6.37;;;;;;;-141.02;100.00;39027.41;5094981;28;20200;-72
2023/12/06 00:34:07;;;;;;;6.67;6.47;;;;;;;-141.02;100.00;39056.16;5094838;28;20236;-72
2023/12/06 00:36:34;;;;;;;6.60;6.40;;;;;;;-141.02;100.00;39015.88;5094790;28;20733;-72
2023/12/06 00:39:01;;;;;;;6.80;6.60;;;;;;;-141.02;100.00;39048.50;5095070;28;20202;-72
2023/12/06 00:41:29;;;;;;;6.80;6.60;;;;;;;-141.02;100.00;39056.16;5094960;28;20281;-72
2023/12/06 00:43:56;;;;;;;6.47;6.30;;;;;;;-141.02;100.00;39094.50;5094718;28;20233;-72
2023/12/06 00:46:24;;;;;;;6.97;6.77;;;;;;;-141.02;100.00;39052.31;5094993;28;20273;-72
2023/12/06 00:48:52;;;;;;;6.90;6.70;;;;;;;-141.02;100.00;39090.69;5094598;28;20578;-71
2023/12/06 00:51:19;;;;;;;6.30;6.20;;;;;;;-141.02;100.00;39096.44;5094903;28;20194;-71
2023/12/06 00:53:46;;;;;;;6.50;6.30;;;;;;;-141.02;100.00;39113.69;5094529;28;20264;-72
2023/12/06 00:56:13;;;;;;;6.63;6.43;;;;;;;-141.02;100.00;39098.34;5094732;28;20232;-72
2023/12/06 00:58:43;;;;;;;7.40;7.20;;;;;;;-141.02;100.00;39119.44;5094469;28;20698;-72
2023/12/06 01:01:11;;;;;;;6.80;6.60;;;;;;;-141.02;100.00;39125.19;5094710;28;20197;-72
2023/12/06 01:03:38;;;;;;;6.43;6.27;;;;;;;-141.02;100.00;39144.38;5094307;28;20230;-72
2023/12/06 01:06:05;;;;;;;6.43;6.27;;;;;;;-141.02;100.00;39140.53;5094326;28;20237;-72
2023/12/06 01:08:32;;;;;;;6.33;6.23;;;;;;;-141.02;100.00;39201.91;5094265;28;20281;-72
2023/12/06 01:11:00;;;;;;;6.80;6.60;;;;;;;-141.02;100.00;39144.38;5094268;28;20229;-72
2023/12/06 01:13:27;;;;;;;6.70;6.50;;;;;;;-141.02;100.00;39136.69;5094049;28;20694;-72
2023/12/06 01:15:55;;;;;;;6.60;6.40;;;;;;;-141.02;100.00;39146.28;5094145;28;20233;-72
2023/12/06 01:18:22;;;;;;;6.70;6.50;;;;;;;-141.02;100.00;39125.19;5094420;28;20276;-71
2023/12/06 01:20:49;;;;;;;6.83;6.63;;;;;;;-141.02;100.00;39157.78;5094308;28;20580;-72
2023/12/06 01:23:16;;;;;;;7.47;7.27;;;;;;;-141.02;100.00;39121.34;5094018;28;20660;-73
2023/12/06 01:25:43;;;;;;;6.60;6.40;;;;;;;-141.02;100.00;39157.78;5093934;28;20746;-72
2023/12/06 01:28:10;;;;;;;6.70;6.50;;;;;;;-141.02;100.00;39121.34;5094263;28;20197;-72
2023/12/06 01:30:37;;;;;;;6.83;6.63;;;;;;;-141.02;100.00;39117.53;5093798;28;20588;-72
2023/12/06 01:33:06;;;;;;;6.60;6.40;;;;;;;-141.02;100.00;39136.69;5093688;28;20225;-72
2023/12/06 01:35:32;;;;;;;6.50;6.33;;;;;;;-141.02;100.00;39171.22;5094040;28;20244;-72
2023/12/06 01:37:59;;;;;;;6.70;6.50;;;;;;;-141.02;100.00;39144.38;5093515;28;20234;-71
2023/12/06 01:40:26;;;;;;;6.97;6.77;;;;;;;-141.02;100.00;39171.22;5093910;28;20296;-71
2023/12/06 01:42:53;;;;;;;6.60;6.40;;;;;;;-141.02;100.00;39150.13;5093533;28;20233;-72
2023/12/06 01:45:20;;;;;;;7.00;6.80;;;;;;;-141.02;100.00;39203.81;5093536;28;20281;-72
2023/12/06 01:47:49;;;;;;;7.10;6.90;;;;;;;-141.02;100.00;39169.28;5093514;28;20288;-71
2023/12/06 01:50:17;;;;;;;7.10;6.90;;;;;;;-141.02;100.00;39140.53;5093714;28;20356;-72
2023/12/06 01:52:44;;;;;;;6.90;6.70;;;;;;;-141.02;100.00;39180.81;5093353;28;20229;-72
2023/12/06 01:55:12;;;;;;;7.23;7.03;;;;;;;-141.02;100.00;39163.53;5093563;28;20324;-71
2023/12/06 01:57:43;;;;;;;6.83;6.63;;;;;;;-141.02;100.00;39167.38;5093694;28;20272;-72
2023/12/06 02:00:11;;;;;;;7.00;6.80;;;;;;;-141.02;100.00;39198.06;5093310;28;20652;-72
2023/12/06 02:02:38;;;;;;;6.40;6.30;;;;;;;-141.02;100.00;39223.00;5093003;28;20316;-72
2023/12/06 02:05:06;;;;;;;6.70;6.50;;;;;;;-141.02;100.00;39194.22;5093608;28;20288;-72
2023/12/06 02:07:35;;;;;;;6.17;6.07;;;;;;;-141.02;100.00;39232.59;5093068;28;20281;-73
2023/12/06 02:10:03;;;;;;;8.07;7.87;;;;;;;-141.02;100.00;39247.91;5093392;28;20225;-72
2023/12/06 02:12:30;;;;;;;7.80;7.60;;;;;;;-141.02;100.00;39251.75;5093071;28;20669;-72
2023/12/06 02:14:59;;;;;;;6.43;6.27;;;;;;;-141.02;100.00;39259.44;5093311;28;20225;-72
2023/12/06 02:17:26;;;;;;;6.47;6.30;;;;;;;-141.02;100.00;39270.94;5093321;28;20204;-72
2023/12/06 02:19:54;;;;;;;6.80;6.60;;;;;;;-141.02;100.00;39297.78;5093157;28;20225;-73
2023/12/06 02:22:23;;;;;;;6.30;6.20;;;;;;;-141.02;100.00;39309.28;5093156;28;20290;-72
2023/12/06 02:24:54;;;;;;;6.60;6.40;;;;;;;-141.02;100.00;39297.78;5092828;28;20193;-72
2023/12/06 02:27:24;;;;;;;6.30;6.20;;;;;;;-141.02;100.00;39320.78;5092843;28;20652;-72
2023/12/06 02:29:51;;;;;;;6.13;6.03;;;;;;;-141.02;100.00;39316.97;5092664;28;20198;-71
2023/12/06 02:32:18;;;;;;;6.50;6.30;;;;;;;-141.02;100.00;39339.97;5092670;28;20613;-72
2023/12/06 02:34:50;;;;;;;6.10;6.00;;;;;;;-141.02;100.00;39439.69;5092841;28;20261;-71
2023/12/06 02:37:20;;;;;;;5.90;5.80;;;;;;;-141.02;100.00;39393.66;5092633;28;20194;-72
2023/12/06 02:39:49;;;;;;;5.87;5.77;;;;;;;-141.02;100.00;39386.00;5092690;28;20190;-71
2023/12/06 02:42:16;;;;;;;5.83;5.73;;;;;;;-141.02;100.00;39380.25;5092552;28;20236;-72
2023/12/06 02:44:45;;;;;;;5.93;5.83;;;;;;;-141.02;100.00;39412.84;5092450;28;20229;-72
2023/12/06 02:47:12;;;;;;;5.97;5.87;;;;;;;-141.02;100.00;39439.69;5092378;28;20197;-71
2023/12/06 02:49:39;;;;;;;5.80;5.70;;;;;;;-141.02;100.00;39439.69;5092321;28;20281;-72
2023/12/06 02:52:07;;;;;;;5.60;5.50;;;;;;;-141.02;100.00;39497.22;5092271;28;20678;-72
2023/12/06 02:54:33;;;;;;;5.97;5.87;;;;;;;-141.02;100.00;39522.16;5092270;28;20316;-72
2023/12/06 02:57:00;;;;;;;5.60;5.50;;;;;;;-141.02;100.00;39504.91;5092637;28;20194;-72
2023/12/06 02:59:27;;;;;;;5.70;5.60;;;;;;;-141.02;100.00;39589.28;5092532;28;20277;-73
2023/12/06 03:01:56;;;;;;;5.50;5.40;;;;;;;-141.02;100.00;39625.72;5092833;28;20285;-72
2023/12/06 03:04:23;;;;;;;5.70;5.60;;;;;;;-141.02;100.00;39704.38;5092421;28;20240;-72
2023/12/06 03:06:54;;;;;;;5.40;5.30;;;;;;;-141.02;100.00;39765.75;5092170;28;20200;-72
2023/12/06 03:09:21;;;;;;;5.50;5.40;;;;;;;-141.02;100.00;39848.22;5092480;28;20292;-72
2023/12/06 03:11:48;;;;;;;5.53;5.43;;;;;;;-141.02;100.00;39915.34;5092135;28;20190;-72
2023/12/06 03:14:15;;;;;;;5.43;5.33;;;;;;;-141.02;100.00;40011.25;5092359;28;20257;-71
2023/12/06 03:16:42;;;;;;;5.27;5.17;;;;;;;-141.02;100.00;40130.19;5092039;28;20200;-72
2023/12/06 03:19:10;;;;;;;5.00;4.90;;;;;;;-141.02;100.00;40289.41;5092415;28;20296;-72
2023/12/06 03:21:37;;;;;;;5.20;5.10;;;;;;;-141.02;100.00;40348.88;5092323;28;20193;-72
2023/12/06 03:24:05;;;;;;;4.60;4.50;;;;;;;-141.02;100.00;40444.78;5092245;28;20285;-72
2023/12/06 03:26:32;;;;;;;4.80;4.70;;;;;;;-141.02;100.00;40548.38;5092348;28;20221;-71
2023/12/06 03:28:59;;;;;;;4.80;4.70;;;;;;;-141.02;100.00;40609.75;5092209;28;20190;-72
2023/12/06 03:31:25;;;;;;;4.90;4.80;;;;;;;-141.02;100.00;40701.84;5092246;28;20276;-72
2023/12/06 03:33:52;;;;;;;4.40;4.30;;;;;;;-141.02;100.00;40698.00;5091854;28;20261;-71
2023/12/06 03:36:21;;;;;;;4.50;4.40;;;;;;;-141.02;100.00;40701.84;5091927;28;20289;-71
2023/12/06 03:38:48;;;;;;;4.50;4.40;;;;;;;-141.02;100.00;40709.53;5091872;28;20189;-72
2023/12/06 03:41:15;;;;;;;4.50;4.40;;;;;;;-141.02;100.00;40709.53;5091846;28;20261;-72
2023/12/06 03:43:42;;;;;;;4.50;4.40;;;;;;;-141.02;100.00;40690.34;5091850;28;20653;-72
2023/12/06 03:46:09;;;;;;;4.60;4.50;;;;;;;-141.02;100.00;40655.81;5092041;28;20225;-71
2023/12/06 03:48:36;;;;;;;4.60;4.50;;;;;;;-141.02;100.00;40632.78;5092081;28;20565;-71
2023/12/06 03:51:03;;;;;;;4.90;4.80;;;;;;;-141.02;100.00;40678.84;5091972;28;20208;-71
2023/12/06 03:53:34;;;;;;;4.60;4.50;;;;;;;-141.02;100.00;40582.91;5091613;28;20202;-72
2023/12/06 03:56:01;;;;;;;4.90;4.80;;;;;;;-141.02;100.00;40619.34;5092024;28;20194;-72
2023/12/06 03:58:28;;;;;;;4.90;4.80;;;;;;;-141.02;100.00;40617.44;5091921;28;20223;-72
2023/12/06 04:00:55;;;;;;;5.00;4.90;;;;;;;-141.02;100.00;40615.53;5091705;28;20190;-71
2023/12/06 04:03:22;;;;;;;5.00;4.90;;;;;;;-141.02;100.00;40607.84;5094216;28;20230;-71
2023/12/06 04:05:49;;;;;;;5.80;5.70;;;;;;;-141.02;100.00;40659.66;5095488;28;20276;-72
2023/12/06 04:08:16;;;;;;;6.10;6.00;;;;;;;-141.02;100.00;40650.06;5095457;28;20200;-72
2023/12/06 04:10:45;;;;;;;4.87;4.77;;;;;;;-141.02;100.00;40653.88;5095404;28;20670;-72
2023/12/06 04:13:12;;;;;;;5.00;4.90;;;;;;;-141.02;100.00;40673.06;5095728;28;20194;-72
2023/12/06 04:15:38;;;;;;;5.30;5.20;;;;;;;-141.02;100.00;40667.31;5095152;28;20261;-71
2023/12/06 04:18:05;;;;;;;5.20;5.10;;;;;;;-141.02;100.00;40690.34;5095269;28;20655;-72
2023/12/06 04:20:32;;;;;;;5.27;5.17;;;;;;;-141.02;100.00;40724.88;5095183;28;20198;-72
2023/12/06 04:22:59;;;;;;;5.00;4.90;;;;;;;-141.02;100.00;40790.09;5095237;28;20746;-72
2023/12/06 04:25:27;;;;;;;4.80;4.70;;;;;;;-141.02;100.00;40847.66;5095514;28;20276;-71
2023/12/06 04:27:56;;;;;;;4.73;4.63;;;;;;;-141.02;100.00;40886.03;5095408;28;20617;-72
2023/12/06 04:30:23;;;;;;;4.60;4.50;;;;;;;-141.02;100.00;40884.13;5095049;28;20281;-72
2023/12/06 04:32:50;;;;;;;4.43;4.33;;;;;;;-141.02;100.00;40920.56;5094913;28;20196;-71
2023/12/06 04:35:17;;;;;;;4.53;4.43;;;;;;;-141.02;100.00;40989.66;5094841;28;20283;-71
2023/12/06 04:37:44;;;;;;;4.67;4.57;;;;;;;-141.02;100.00;41083.66;5094842;28;20195;-71
2023/12/06 04:40:12;;;;;;;4.33;4.23;;;;;;;-141.02;100.00;41123.97;5094811;28;20233;-71
2023/12/06 04:42:39;;;;;;;4.30;4.20;;;;;;;-141.02;100.00;41135.47;5095198;28;20276;-71
2023/12/06 04:45:08;;;;;;;4.80;4.70;;;;;;;-141.02;100.00;41160.41;5094728;28;20644;-72
2023/12/06 04:47:35;;;;;;;4.30;4.20;;;;;;;-141.02;100.00;41208.38;5095096;28;20229;-71
2023/12/06 04:50:02;;;;;;;4.00;3.90;;;;;;;-141.02;100.00;41285.13;5094951;28;20285;-71
2023/12/06 04:52:29;;;;;;;4.10;4.00;;;;;;;-141.02;100.00;41288.97;5094697;28;20281;-71
2023/12/06 04:54:56;;;;;;;4.40;4.30;;;;;;;-141.02;100.00;41300.50;5094750;28;20236;-71
2023/12/06 04:57:23;;;;;;;4.40;4.30;;;;;;;-141.02;100.00;41346.53;5094457;28;20711;-71
2023/12/06 04:59:50;;;;;;;4.37;4.27;;;;;;;-141.02;100.00;41413.69;5094451;28;20280;-71
2023/12/06 05:02:18;;;;;;;4.37;4.27;;;;;;;-141.02;100.00;41446.31;5094214;28;20324;-71
2023/12/06 05:04:45;;;;;;;4.40;4.30;;;;;;;-141.02;100.00;41475.09;5094726;28;20190;-71
2023/12/06 05:07:12;;;;;;;4.20;4.10;;;;;;;-141.02;100.00;41538.44;5094387;28;20198;-72
2023/12/06 05:09:39;;;;;;;4.60;4.50;;;;;;;-141.02;100.00;41559.53;5094231;28;20193;-71
2023/12/06 05:12:07;;;;;;;4.43;4.33;;;;;;;-141.02;100.00;41622.88;5094535;28;20277;-71
2023/12/06 05:14:34;;;;;;;4.47;4.37;;;;;;;-141.02;100.00;41665.09;5093901;28;20308;-71
2023/12/06 05:17:01;;;;;;;4.37;4.27;;;;;;;-141.02;100.00;41745.69;5094121;28;20190;-71
2023/12/06 05:19:29;;;;;;;4.40;4.30;;;;;;;-141.02;100.00;41826.31;5094030;28;20282;-72
2023/12/06 05:21:56;;;;;;;4.50;4.40;;;;;;;-141.02;100.00;41906.91;5094299;28;20198;-72
2023/12/06 05:24:23;;;;;;;4.30;4.20;;;;;;;-141.02;100.00;41941.44;5093979;28;20210;-71
2023/12/06 05:26:50;;;;;;;4.63;4.53;;;;;;;-141.02;100.00;42010.53;5093881;28;20240;-72
2023/12/06 05:29:17;;;;;;;4.50;4.40;;;;;;;-141.02;100.00;42075.81;5093872;28;20642;-71
2023/12/06 05:31:44;;;;;;;4.30;4.20;;;;;;;-141.02;100.00;42285.00;5093836;28;20201;-72
2023/12/06 05:34:11;;;;;;;4.40;4.30;;;;;;;-141.02;100.00;42425.13;5093708;28;20198;-72
2023/12/06 05:36:40;;;;;;;4.37;4.27;;;;;;;-141.02;100.00;42584.47;5094009;28;20273;-72
2023/12/06 05:39:07;;;;;;;4.47;4.37;;;;;;;-141.02;100.00;42724.59;5093634;28;20285;-72
2023/12/06 05:41:34;;;;;;;4.20;4.10;;;;;;;-141.02;100.00;42954.97;5093669;28;20209;-72
2023/12/06 05:44:01;;;;;;;4.20;4.10;;;;;;;-141.02;100.00;43227.59;5093520;28;20289;-72
2023/12/06 05:46:28;;;;;;;4.33;4.23;;;;;;;-141.02;100.00;43699.94;5093580;28;20281;-72
2023/12/06 05:48:55;;;;;;;4.33;4.23;;;;;;;-141.02;100.00;44256.84;5093801;28;20273;-72
2023/12/06 05:51:22;;;;;;;4.30;4.20;;;;;;;-141.02;100.00;44952.16;5093738;28;20189;-72
2023/12/06 05:53:51;;;;;;;4.33;4.23;;;;;;;-141.02;100.00;45930.06;5093759;28;20198;-72
2023/12/06 05:56:17;;;;;;;4.23;4.13;;;;;;;-141.02;100.00;46967.84;5093610;28;20308;-72
2023/12/06 05:58:44;;;;;;;4.50;4.40;;;;;;;-141.02;100.00;47955.97;5093657;28;20198;-72
2023/12/06 06:01:11;;;;;;;4.70;4.60;;;;;;;-141.02;100.00;48727.03;5093258;28;20289;-73
2023/12/06 06:03:38;;;;;;;4.53;4.43;;;;;;;-141.02;100.00;49288.63;5093109;28;20229;-72
2023/12/06 06:06:07;;;;;;;3.97;3.87;;;;;;;-141.02;100.00;50188.91;5093170;28;20742;-72
2023/12/06 06:08:34;;;;;;;3.70;3.60;;;;;;;-141.02;100.00;50864.28;5093367;28;20194;-71
2023/12/06 06:11:04;;;;;;;3.60;3.50;;;;;;;-141.02;100.00;51632.19;5093142;28;20190;-71
2023/12/06 06:13:31;;;;;;;3.60;3.50;;;;;;;-141.02;100.00;52558.13;5093393;28;20200;-75
2023/12/06 06:15:59;;;;;;;3.20;3.20;;;;;;;-141.02;100.00;52960.53;5092954;28;20230;-74
2023/12/06 06:18:27;;;;;;;3.20;3.20;;;;;;;-141.02;100.00;53434.22;5093242;28;20276;-74
2023/12/06 06:20:54;;;;;;;3.00;3.00;;;;;;;-141.02;100.00;54270.13;5092885;28;20544;-73
2023/12/06 06:23:21;;;;;;;2.80;2.80;;;;;;;-141.02;100.00;55233.41;5092914;28;20734;-75
2023/12/06 06:25:48;;;;;;;2.80;2.80;;;;;;;-141.02;100.00;55846.19;5092061;28;20197;-75
2023/12/06 06:28:16;;;;;;;2.90;2.90;;;;;;;-141.02;100.00;56540.03;5093105;28;20235;-72
2023/12/06 06:30:44;;;;;;;2.90;2.90;;;;;;;-141.02;100.00;57075.94;5093043;28;20322;-74
2023/12/06 06:33:11;;;;;;;3.13;3.13;;;;;;;-141.02;100.00;57293.78;5092709;28;20244;-74
2023/12/06 06:35:37;;;;;;;2.80;2.80;;;;;;;-141.02;100.00;57901.16;5092653;28;20231;-74
2023/12/06 06:38:04;;;;;;;2.87;2.87;;;;;;;-141.02;100.00;58734.28;5092639;28;20198;-73
2023/12/06 06:40:31;;;;;;;2.80;2.80;;;;;;;-141.02;100.00;58981.19;5092963;28;20194;-74
2023/12/06 06:42:58;;;;;;;2.57;2.57;;;;;;;-141.02;100.00;59721.97;5092448;28;20289;-74
2023/12/06 06:45:27;;;;;;;2.60;2.60;;;;;;;-141.02;100.00;60215.94;5092485;28;20194;-72
2023/12/06 06:47:54;;;;;;;2.43;2.43;;;;;;;-141.02;100.00;61204.03;5092746;28;20272;-72
2023/12/06 06:50:22;;;;;;;2.30;2.30;;;;;;;-141.02;100.00;61945.31;5092373;28;20193;-75
2023/12/06 06:52:49;;;;;;;2.60;2.60;;;;;;;-141.02;100.00;62933.94;5092727;28;20273;-75
2023/12/06 06:55:16;;;;;;;2.57;2.57;;;;;;;-141.02;100.00;63181.16;5092213;28;20268;-74
2023/12/06 06:57:43;;;;;;;2.40;2.40;;;;;;;-141.02;100.00;63675.59;5092684;28;20225;-76
2023/12/06 07:00:12;;;;;;;2.10;2.10;;;;;;;-141.02;100.00;64170.13;5092568;28;20193;-71
2023/12/06 07:02:41;;;;;;;3.00;3.00;;;;;;;-141.02;100.00;64912.06;5092335;28;20233;-70
2023/12/06 07:05:12;;;;;;;2.60;2.60;;;;;;;-141.02;100.00;66148.94;5092578;28;20274;-75
2023/12/06 07:07:39;;;;;;;2.43;2.43;;;;;;;-141.02;100.00;66891.31;5092292;28;20190;-75
2023/12/06 07:10:08;;;;;;;2.00;2.00;;;;;;;-141.02;100.00;66891.31;5092455;28;20193;-75
2023/12/06 07:12:35;;;;;;;2.00;2.00;;;;;;;-141.02;100.00;67386.28;5092412;28;20204;-72
2023/12/06 07:15:02;;;;;;;2.00;2.00;;;;;;;-141.02;100.00;67881.38;5092369;28;20267;-76
2023/12/06 07:17:29;;;;;;;2.03;2.03;;;;;;;-141.02;100.00;67881.38;5092047;28;20240;-77
2023/12/06 07:19:58;;;;;;;2.10;2.10;;;;;;;-141.02;100.00;68376.50;5092134;28;20201;-74
2023/12/06 07:22:25;;;;;;;2.00;2.00;;;;;;;-141.02;100.00;69119.34;5092337;28;20251;-72
2023/12/06 07:24:52;;;;;;;2.23;2.23;;;;;;;-141.02;100.00;69366.97;5091994;28;20247;-74
2023/12/06 07:27:19;;;;;;;2.33;2.33;;;;;;;-141.02;100.00;70110.03;5092318;28;20194;-72
2023/12/06 07:29:46;;;;;;;2.50;2.50;;;;;;;-141.02;100.00;70853.25;5092262;28;20197;-72
2023/12/06 07:32:13;;;;;;;2.67;2.67;;;;;;;-141.02;100.00;71596.63;5091965;28;20232;-70
2023/12/06 07:34:40;;;;;;;2.77;2.77;;;;;;;-141.02;100.00;72092.31;5091832;28;20193;-72
2023/12/06 07:37:09;;;;;;;2.70;2.70;;;;;;;-141.02;100.00;72092.31;5095051;28;20284;-72
2023/12/06 07:39:36;;;;;;;2.90;2.90;;;;;;;-141.02;100.00;72588.06;5096333;28;20276;-72
2023/12/06 07:42:03;;;;;;;2.90;2.90;;;;;;;-141.02;100.00;72835.97;5096249;28;20272;-71
2023/12/06 07:44:30;;;;;;;3.00;3.00;;;;;;;-141.02;100.00;73083.88;5096314;28;20193;-72
2023/12/06 07:46:57;;;;;;;3.17;3.17;;;;;;;-141.02;100.00;72835.97;5096227;28;20194;-71
2023/12/06 07:49:24;;;;;;;3.10;3.10;;;;;;;-141.02;100.00;73083.88;5096187;28;20204;-71
2023/12/06 07:51:51;;;;;;;3.37;3.30;;;;;;;-141.02;100.00;73083.88;5096116;28;20231;-71
2023/12/06 07:54:20;;;;;;;3.20;3.20;;;;;;;-141.02;100.00;73579.75;5095720;28;20200;-72
2023/12/06 07:56:47;;;;;;;3.30;3.30;;;;;;;-141.02;100.00;73579.75;5095649;28;20355;-71
2023/12/06 07:59:14;;;;;;;3.53;3.47;;;;;;;-141.02;100.00;73827.72;5095679;28;20570;-71
2023/12/06 08:01:43;;;;;;;3.90;3.80;;;;;;;-141.02;100.00;73579.75;5095599;28;20196;-72
2023/12/06 08:04:10;;;;;;;3.57;3.47;;;;;;;-141.02;100.00;73827.72;5095420;28;20229;-72
2023/12/06 08:06:37;;;;;;;3.67;3.57;;;;;;;-141.02;100.00;73827.72;5095497;28;20197;-72
2023/12/06 08:09:10;;;;;;;3.80;3.70;;;;;;;-141.02;100.00;74571.75;5095754;28;20204;-72
2023/12/06 08:11:39;;;;;;;4.20;4.10;;;;;;;-141.02;100.00;75067.88;5096247;28;20182;-72
2023/12/06 08:14:06;;;;;;;4.00;3.90;;;;;;;-141.02;100.00;75067.88;5095670;28;20198;-72
2023/12/06 08:16:33;;;;;;;4.10;4.00;;;;;;;-141.02;100.00;75315.94;5095187;28;20232;-73
2023/12/06 08:19:00;;;;;;;4.30;4.20;;;;;;;-141.02;100.00;76060.28;5095264;28;20277;-72
2023/12/06 08:21:27;;;;;;;4.43;4.33;;;;;;;-141.02;100.00;76308.44;5095173;28;20281;-73
2023/12/06 08:23:54;;;;;;;4.80;4.70;;;;;;;-141.02;100.00;76556.59;5095161;28;20280;-72
2023/12/06 08:26:21;;;;;;;4.90;4.80;;;;;;;-141.02;100.00;77053.00;5095215;28;20694;-71
2023/12/06 08:28:49;;;;;;;4.80;4.70;;;;;;;-141.02;100.00;77301.22;5095048;28;20674;-72
2023/12/06 08:31:16;;;;;;;4.97;4.87;;;;;;;-141.02;100.00;77301.22;5095086;28;20205;-72
2023/12/06 08:33:43;;;;;;;5.17;5.07;;;;;;;-141.02;100.00;77549.47;5095256;28;20276;-71
2023/12/06 08:36:11;;;;;;;5.00;4.90;;;;;;;-141.02;100.00;77549.47;5094908;28;20225;-71
2023/12/06 08:38:38;;;;;;;5.50;5.40;;;;;;;-141.02;100.00;77797.72;5094979;28;20205;-71
2023/12/06 08:41:06;;;;;;;6.00;5.90;;;;;;;-141.02;100.00;77549.47;5095134;28;20233;-71
2023/12/06 08:43:35;;;;;;;5.80;5.70;;;;;;;-141.02;100.00;77797.72;5095110;28;20194;-72
2023/12/06 08:46:04;;;;;;;5.60;5.50;;;;;;;-141.02;100.00;78046.00;5094787;28;20289;-72
2023/12/06 08:48:31;;;;;;;5.77;5.67;;;;;;;-141.02;100.00;78046.00;5093910;28;20208;-72
2023/12/06 08:50:59;;;;;;;5.73;5.63;;;;;;;-141.02;100.00;78046.00;5094946;28;20201;-72
2023/12/06 08:53:26;;;;;;;5.67;5.57;;;;;;;-141.02;100.00;78294.28;5094937;28;20560;-72
2023/12/06 08:55:54;;;;;;;5.37;5.27;;;;;;;-141.02;100.00;78542.63;5094485;28;20225;-72
2023/12/06 08:58:21;;;;;;;5.53;5.43;;;;;;;-141.02;100.00;78542.63;5094793;28;20202;-72
2023/12/06 09:00:48;;;;;;;5.03;4.93;;;;;;;-141.02;100.00;78542.63;5094452;28;20654;-71
2023/12/06 09:03:16;;;;;;;5.60;5.50;;;;;;;-141.02;100.00;78790.94;5094365;28;20237;-72
2023/12/06 09:05:43;;;;;;;5.63;5.53;;;;;;;-141.02;100.00;78790.94;5094462;28;20193;-71
2023/12/06 09:08:12;;;;;;;5.90;5.80;;;;;;;-141.02;100.00;79039.28;5094376;28;20200;-72
2023/12/06 09:10:39;;;;;;;5.80;5.70;;;;;;;-141.02;100.00;79039.28;5094287;28;20687;-71
2023/12/06 09:13:06;;;;;;;6.20;6.10;;;;;;;-141.02;100.00;79287.66;5094296;28;20280;-71
2023/12/06 09:15:33;;;;;;;6.20;6.10;;;;;;;-141.02;100.00;79536.03;5094396;28;20257;-72
2023/12/06 09:18:00;;;;;;;6.30;6.20;;;;;;;-141.02;100.00;79536.03;5094476;28;20277;-72
2023/12/06 09:20:28;;;;;;;6.80;6.60;;;;;;;-141.02;100.00;79287.66;5094423;28;20336;-71
2023/12/06 09:22:55;;;;;;;7.07;6.87;;;;;;;-141.02;100.00;79287.66;5094407;28;20267;-72
2023/12/06 09:25:22;;;;;;;7.07;6.87;;;;;;;-141.02;100.00;79039.28;5094361;28;20288;-71
2023/12/06 09:27:50;;;;;;;7.80;7.60;;;;;;;-141.02;100.00;79287.66;5094257;28;20288;-72
2023/12/06 09:30:17;;;;;;;7.40;7.20;;;;;;;-141.02;100.00;79039.28;5093964;28;20214;-71
2023/12/06 09:32:45;;;;;;;7.63;7.43;;;;;;;-141.02;100.00;79039.28;5093835;28;20562;-72
2023/12/06 09:35:12;;;;;;;7.20;7.00;;;;;;;-141.02;100.00;78542.63;5094185;28;20216;-71
2023/12/06 09:37:41;;;;;;;7.10;6.90;;;;;;;-141.02;100.00;78542.63;5094006;28;20265;-72
2023/12/06 09:40:10;;;;;;;6.80;6.60;;;;;;;-141.02;100.00;78790.94;5094004;28;20205;-72
2023/12/06 09:42:39;;;;;;;7.20;7.00;;;;;;;-141.02;100.00;78542.63;5093643;28;20667;-72
2023/12/06 09:45:07;;;;;;;7.10;6.90;;;;;;;-141.02;100.00;78294.28;5093848;28;20255;-72
2023/12/06 09:47:35;;;;;;;7.20;7.00;;;;;;;-141.02;100.00;78294.28;5093689;28;20240;-73
2023/12/06 09:50:03;;;;;;;6.90;6.70;;;;;;;-141.02;100.00;78046.00;5093883;28;20229;-73
2023/12/06 09:52:30;;;;;;;6.80;6.60;;;;;;;-141.02;100.00;78046.00;5093499;28;20676;-72
2023/12/06 09:54:59;;;;;;;7.10;6.90;;;;;;;-141.02;100.00;78046.00;5093774;28;20277;-72
2023/12/06 09:57:26;;;;;;;6.73;6.53;;;;;;;-141.02;100.00;78294.28;5093335;28;20225;-72
2023/12/06 09:59:53;;;;;;;7.30;7.10;;;;;;;-141.02;100.00;78790.94;5093395;28;20289;-72
2023/12/06 10:02:20;;;;;;;7.20;7.00;;;;;;;-141.02;100.00;78542.63;5093327;28;20229;-73
2023/12/06 10:04:48;;;;;;;7.00;6.80;;;;;;;-141.02;100.00;78790.94;5093347;28;20225;-73
2023/12/06 10:07:15;;;;;;;6.90;6.70;;;;;;;-141.02;100.00;78790.94;5093517;28;20221;-72
2023/12/06 10:09:49;;;;;;;6.77;6.57;;;;;;;-141.02;100.00;78790.94;5093444;28;20301;-72
2023/12/06 10:12:18;;;;;;;6.10;6.00;;;;;;;-141.02;100.00;78790.94;5093387;28;20185;-72
2023/12/06 10:14:46;;;;;;;6.50;6.30;;;;;;;-141.02;100.00;78790.94;5093068;28;20656;-72
2023/12/06 10:17:13;;;;;;;6.70;6.50;;;;;;;-141.02;100.00;79039.28;5092934;28;20725;-73
2023/12/06 10:19:41;;;;;;;6.60;6.40;;;;;;;-141.02;100.00;78790.94;5092934;28;20284;-73
2023/12/06 10:22:08;;;;;;;6.70;6.50;;;;;;;-141.02;100.00;78790.94;5093240;28;20229;-73
2023/12/06 10:24:42;;;;;;;6.60;6.40;;;;;;;-141.02;100.00;78790.94;5093227;28;20572;-73
2023/12/06 10:27:12;;;;;;;6.00;5.90;;;;;;;-141.02;100.00;78542.63;5093169;28;20190;-72
2023/12/06 10:29:40;;;;;;;6.13;6.03;;;;;;;-141.02;100.00;78542.63;5093080;28;20251;-73
2023/12/06 10:32:08;;;;;;;6.20;6.10;;;;;;;-141.02;100.00;78790.94;5093022;28;20205;-73
2023/12/06 10:34:36;;;;;;;6.73;6.53;;;;;;;-141.02;100.00;78790.94;5092705;28;20201;-74
2023/12/06 10:37:04;;;;;;;6.57;6.37;;;;;;;-141.02;100.00;78542.63;5092919;28;20308;-73
2023/12/06 10:39:33;;;;;;;6.60;6.40;;;;;;;-141.02;100.00;78542.63;5092919;28;20190;-73
2023/12/06 10:42:08;;;;;;;6.70;6.50;;;;;;;-141.02;100.00;79536.03;5092581;28;20686;-74
2023/12/06 10:44:35;;;;;;;6.27;6.17;;;;;;;-141.02;100.00;79784.44;5092609;28;20661;-74
2023/12/06 10:47:05;;;;;;;6.50;6.30;;;;;;;-141.02;100.00;79784.44;5092497;28;20660;-75
2023/12/06 10:49:33;;;;;;;6.53;6.33;;;;;;;-141.02;100.00;79784.44;5092504;28;20224;-73
2023/12/06 10:52:00;;;;;;;5.70;5.60;;;;;;;-141.02;100.00;79784.44;5092329;28;20194;-75
2023/12/06 10:54:28;;;;;;;6.17;6.07;;;;;;;-141.02;100.00;80281.31;5092696;28;20237;-75
2023/12/06 10:56:56;;;;;;;5.80;5.70;;;;;;;-141.02;100.00;80032.88;5092290;28;20287;-74
2023/12/06 10:59:26;;;;;;;5.87;5.77;;;;;;;-141.02;100.00;80529.75;5092306;28;20198;-75
2023/12/06 11:01:55;;;;;;;6.00;5.90;;;;;;;-141.02;100.00;80032.88;5092613;28;20247;-75
2023/12/06 11:04:26;;;;;;;6.10;6.00;;;;;;;-141.02;100.00;80281.31;5092101;28;20222;-76
2023/12/06 11:07:04;;;;;;;6.07;5.97;;;;;;;-141.02;100.00;80281.31;5092283;28;20720;-75
2023/12/06 11:09:43;;;;;;;5.90;5.80;;;;;;;-141.02;100.00;80032.88;5092262;28;20648;-75
2023/12/06 11:12:23;;;;;;;6.20;6.10;;;;;;;-141.02;100.00;79784.44;5092163;28;20217;-74